createdAt,value
2018-07-15T00:02:04.591Z,4.87
2018-07-15T00:04:36.522Z,5.35
2018-07-15T00:07:08.177Z,5.90
2018-07-15T00:09:38.953Z,5.50
2018-07-15T00:12:11.480Z,5.78
2018-07-15T00:14:42.851Z,6.30
2018-07-15T00:17:13.922Z,5.73
2018-07-15T00:19:45.298Z,6.30
2018-07-15T00:22:16.402Z,5.50
2018-07-15T00:24:47.743Z,5.90
2018-07-15T00:27:19.316Z,5.70
2018-07-15T00:29:51.067Z,5.75
2018-07-15T00:32:23.070Z,5.60
2018-07-15T00:34:53.927Z,5.00
2018-07-15T00:37:25.520Z,5.73
2018-07-15T00:39:56.021Z,5.63
2018-07-15T00:42:26.833Z,5.40
2018-07-15T00:44:57.925Z,5.47
2018-07-15T00:47:29.110Z,5.60
2018-07-15T00:49:59.987Z,5.17
2018-07-15T00:52:30.841Z,4.97
2018-07-15T00:55:01.619Z,5.00
2018-07-15T00:57:32.874Z,5.70
2018-07-15T01:00:03.924Z,5.27
2018-07-15T01:02:35.164Z,5.20
2018-07-15T01:05:06.383Z,5.03
2018-07-15T01:07:38.189Z,5.63
2018-07-15T01:10:09.381Z,5.37
2018-07-15T01:12:40.653Z,5.10
2018-07-15T01:15:11.964Z,5.60
2018-07-15T01:17:42.752Z,5.70
2018-07-15T01:20:15.177Z,5.13
2018-07-15T01:22:46.473Z,5.83
2018-07-15T01:25:17.690Z,4.90
2018-07-15T01:27:48.473Z,5.30
2018-07-15T01:30:19.722Z,5.13
2018-07-15T01:32:50.646Z,4.80
2018-07-15T01:35:21.497Z,5.00
2018-07-15T01:37:53.153Z,5.27
2018-07-15T01:40:23.937Z,4.60
2018-07-15T01:42:55.014Z,4.90
2018-07-15T01:45:27.121Z,5.20
2018-07-15T01:47:58.358Z,5.77
2018-07-15T01:50:29.541Z,5.20
2018-07-15T01:53:00.777Z,5.07
2018-07-15T01:55:31.682Z,5.13
2018-07-15T01:58:02.919Z,4.57
2018-07-15T02:00:34.127Z,5.10
2018-07-15T02:03:05.350Z,5.10
2018-07-15T02:05:36.195Z,4.93
2018-07-15T02:08:07.286Z,4.70
2018-07-15T02:10:38.071Z,4.83
2018-07-15T02:13:09.011Z,5.00
2018-07-15T02:15:39.832Z,4.53
2018-07-15T02:18:10.881Z,5.40
2018-07-15T02:20:41.667Z,5.60
2018-07-15T02:23:12.586Z,5.33
2018-07-15T02:25:44.082Z,4.90
2018-07-15T02:28:15.047Z,4.75
2018-07-15T02:30:45.812Z,5.60
2018-07-15T02:33:17.789Z,5.30
2018-07-15T02:35:49.000Z,5.47
2018-07-15T02:38:19.940Z,5.50
2018-07-15T02:40:51.940Z,5.03
2018-07-15T02:43:22.715Z,5.47
2018-07-15T02:45:54.070Z,6.13
2018-07-15T02:48:26.239Z,6.07
2018-07-15T02:50:57.061Z,5.13
2018-07-15T02:53:28.110Z,6.10
2018-07-15T02:55:58.993Z,5.33
2018-07-15T02:58:30.548Z,5.20
2018-07-15T03:01:01.322Z,5.50
2018-07-15T03:03:32.528Z,5.47
2018-07-15T03:06:03.753Z,5.20
2018-07-15T03:08:34.683Z,5.20
2018-07-15T03:11:05.894Z,5.53
2018-07-15T03:13:37.170Z,5.80
2018-07-15T03:16:07.876Z,6.00
2018-07-15T03:18:38.719Z,6.13
2018-07-15T03:21:09.973Z,5.60
2018-07-15T03:23:41.068Z,5.30
2018-07-15T03:26:11.959Z,5.23
2018-07-15T03:28:42.813Z,5.87
2018-07-15T03:31:13.552Z,5.60
2018-07-15T03:33:44.690Z,5.37
2018-07-15T03:36:15.618Z,5.20
2018-07-15T03:38:46.394Z,5.20
2018-07-15T03:41:17.522Z,4.97
2018-07-15T03:43:48.755Z,5.63
2018-07-15T03:46:19.623Z,5.10
2018-07-15T03:48:50.425Z,5.53
2018-07-15T03:51:21.112Z,5.40
2018-07-15T03:53:51.973Z,5.20
2018-07-15T03:56:23.114Z,5.17
2018-07-15T03:58:54.433Z,5.20
2018-07-15T04:01:25.631Z,5.30
2018-07-15T04:03:56.464Z,5.47
2018-07-15T04:06:28.465Z,4.92
2018-07-15T04:08:59.294Z,5.50
2018-07-15T04:11:30.916Z,4.95
2018-07-15T04:14:02.673Z,5.83
2018-07-15T04:16:34.225Z,4.83
2018-07-15T04:19:05.179Z,5.50
2018-07-15T04:21:36.658Z,5.70
2018-07-15T04:24:07.883Z,5.43
2018-07-15T04:26:38.862Z,4.90
2018-07-15T04:29:10.081Z,5.10
2018-07-15T04:31:41.241Z,5.37
2018-07-15T04:34:12.543Z,5.53
2018-07-15T04:36:43.994Z,5.30
2018-07-15T04:39:15.358Z,5.58
2018-07-15T04:41:46.934Z,5.40
2018-07-15T04:44:18.317Z,5.20
2018-07-15T04:46:50.326Z,5.25
2018-07-15T04:49:21.554Z,5.60
2018-07-15T04:51:53.318Z,4.67
2018-07-15T04:54:25.310Z,5.10
2018-07-15T04:56:57.092Z,5.05
2018-07-15T04:59:28.746Z,5.37
2018-07-15T05:02:00.372Z,5.28
2018-07-15T05:04:32.883Z,5.40
2018-07-15T05:07:04.984Z,5.20
2018-07-15T05:09:36.536Z,5.62
2018-07-15T05:12:08.781Z,5.00
2018-07-15T05:14:40.754Z,4.97
2018-07-15T05:17:12.800Z,5.00
2018-07-15T05:19:44.142Z,4.70
2018-07-15T05:22:15.742Z,4.92
2018-07-15T05:24:47.087Z,5.45
2018-07-15T05:27:18.792Z,4.85
2018-07-15T05:29:50.267Z,4.70
2018-07-15T05:32:22.570Z,5.50
2018-07-15T05:34:54.032Z,5.10
2018-07-15T05:37:25.872Z,4.78
2018-07-15T05:39:57.561Z,4.50
2018-07-15T05:42:29.081Z,4.97
2018-07-15T05:45:00.741Z,5.25
2018-07-15T05:47:32.518Z,4.90
2018-07-15T05:50:04.054Z,5.00
2018-07-15T05:52:35.396Z,5.20
2018-07-15T05:55:07.547Z,4.58
2018-07-15T05:57:39.110Z,5.70
2018-07-15T06:00:11.654Z,5.47
2018-07-15T06:02:43.427Z,5.00
2018-07-15T06:05:15.035Z,5.08
2018-07-15T06:07:46.315Z,5.08
2018-07-15T06:10:17.782Z,5.08
2018-07-15T06:12:49.995Z,4.70
2018-07-15T06:15:21.671Z,4.92
2018-07-15T06:17:53.255Z,4.62
2018-07-15T06:20:25.011Z,5.00
2018-07-15T06:22:57.013Z,4.58
2018-07-15T06:25:28.442Z,4.85
2018-07-15T06:27:59.992Z,4.72
2018-07-15T06:30:31.555Z,5.33
2018-07-15T06:33:03.247Z,5.33
2018-07-15T06:35:35.025Z,5.05
2018-07-15T06:38:07.148Z,5.20
2018-07-15T06:40:38.830Z,5.60
2018-07-15T06:43:10.303Z,5.20
2018-07-15T06:45:42.031Z,5.33
2018-07-15T06:48:13.862Z,5.03
2018-07-15T06:50:45.416Z,5.60
2018-07-15T06:53:17.635Z,5.58
2018-07-15T06:55:49.790Z,5.55
2018-07-15T06:58:21.360Z,5.05
2018-07-15T07:00:52.981Z,5.58
2018-07-15T07:03:25.052Z,5.12
2018-07-15T07:05:57.081Z,5.17
2018-07-15T07:08:28.840Z,4.80
2018-07-15T07:11:00.136Z,4.90
2018-07-15T07:13:32.099Z,4.97
2018-07-15T07:16:03.473Z,4.80
2018-07-15T07:18:35.098Z,4.80
2018-07-15T07:21:07.094Z,4.90
2018-07-15T07:23:38.450Z,5.08
2018-07-15T07:26:10.871Z,5.00
2018-07-15T07:28:42.699Z,5.03
2018-07-15T07:31:13.882Z,4.97
2018-07-15T07:33:45.414Z,4.92
2018-07-15T07:36:17.746Z,5.08
2018-07-15T07:38:49.074Z,4.72
2018-07-15T07:41:21.019Z,5.12
2018-07-15T07:43:52.893Z,5.00
2018-07-15T07:46:24.258Z,5.03
2018-07-15T07:48:55.826Z,5.45
2018-07-15T07:51:27.058Z,5.67
2018-07-15T07:53:58.794Z,5.53
2018-07-15T07:56:30.483Z,5.65
2018-07-15T07:59:02.612Z,5.20
2018-07-15T08:01:34.581Z,5.90
2018-07-15T08:04:05.935Z,5.92
2018-07-15T08:06:38.495Z,6.50
2018-07-15T08:09:10.526Z,6.22
2018-07-15T08:11:41.766Z,6.25
2018-07-15T08:14:13.373Z,6.28
2018-07-15T08:16:44.766Z,6.47
2018-07-15T08:19:16.627Z,6.83
2018-07-15T08:21:48.007Z,6.72
2018-07-15T08:24:19.729Z,6.78
2018-07-15T08:26:51.402Z,7.00
2018-07-15T08:29:22.874Z,6.75
2018-07-15T08:31:54.234Z,6.53
2018-07-15T08:34:26.318Z,6.00
2018-07-15T08:36:57.942Z,6.03
2018-07-15T08:39:29.552Z,5.87
2018-07-15T08:42:01.384Z,5.70
2018-07-15T08:44:32.858Z,5.80
2018-07-15T08:47:04.543Z,5.92
2018-07-15T08:49:36.360Z,5.92
2018-07-15T08:52:08.307Z,5.58
2018-07-15T08:54:39.204Z,6.00
2018-07-15T08:57:10.403Z,6.78
2018-07-15T08:59:42.163Z,6.53
2018-07-15T09:02:14.135Z,5.90
2018-07-15T09:04:45.761Z,5.97
2018-07-15T09:07:17.939Z,6.30
2018-07-15T09:09:49.177Z,6.40
2018-07-15T09:12:20.912Z,6.40
2018-07-15T09:14:52.517Z,6.80
2018-07-15T09:17:23.735Z,6.77
2018-07-15T09:19:55.023Z,6.70
2018-07-15T09:22:26.563Z,7.20
2018-07-15T09:24:59.629Z,6.80
2018-07-15T09:27:30.863Z,6.60
2018-07-15T09:30:02.265Z,6.97
2018-07-15T09:32:33.398Z,6.93
2018-07-15T09:35:05.139Z,6.63
2018-07-15T09:37:36.578Z,6.67
2018-07-15T09:40:09.149Z,6.28
2018-07-15T09:42:40.405Z,6.70
2018-07-15T09:45:12.099Z,6.23
2018-07-15T09:47:43.868Z,6.77
2018-07-15T09:50:15.383Z,6.17
2018-07-15T09:52:47.637Z,6.33
2018-07-15T09:55:19.219Z,6.00
2018-07-15T09:57:50.840Z,5.80
2018-07-15T10:00:27.387Z,6.00
2018-07-15T10:02:59.168Z,6.22
2018-07-15T10:05:31.311Z,6.62
2018-07-15T10:08:03.660Z,6.03
2018-07-15T10:10:35.526Z,6.55
2018-07-15T10:13:07.454Z,6.50
2018-07-15T10:15:39.211Z,6.78
2018-07-15T10:18:10.735Z,6.28
2018-07-15T10:20:42.980Z,6.30
2018-07-15T10:23:14.282Z,6.40
2018-07-15T10:25:45.712Z,6.37
2018-07-15T10:28:17.456Z,6.55
2018-07-15T10:30:49.602Z,6.65
2018-07-15T10:33:21.231Z,7.08
2018-07-15T10:35:52.648Z,6.47
2018-07-15T10:38:24.308Z,6.65
2018-07-15T10:40:56.238Z,6.12
2018-07-15T10:43:27.594Z,6.00
2018-07-15T10:45:59.192Z,6.60
2018-07-15T10:48:31.220Z,5.85
2018-07-15T10:51:02.650Z,5.90
2018-07-15T10:53:34.553Z,5.97
2018-07-15T10:56:06.746Z,6.17
2018-07-15T10:58:38.323Z,5.83
2018-07-15T11:01:11.292Z,6.47
2018-07-15T11:03:43.051Z,6.40
2018-07-15T11:06:15.111Z,6.90
2018-07-15T11:08:47.663Z,6.03
2018-07-15T11:11:19.392Z,6.47
2018-07-15T11:13:52.167Z,5.60
2018-07-15T11:16:24.569Z,6.35
2018-07-15T11:18:56.470Z,6.20
2018-07-15T11:21:28.616Z,5.47
2018-07-15T11:24:00.246Z,5.80
2018-07-15T11:26:32.385Z,5.00
2018-07-15T11:29:04.061Z,5.60
2018-07-15T11:31:36.118Z,5.70
2018-07-15T11:34:07.880Z,5.33
2018-07-15T11:36:39.617Z,4.83
2018-07-15T11:39:11.199Z,4.83
2018-07-15T11:41:43.292Z,5.20
2018-07-15T11:44:15.383Z,4.08
2018-07-15T11:46:47.911Z,4.67
2018-07-15T11:49:19.686Z,4.20
2018-07-15T11:51:51.288Z,5.05
2018-07-15T11:54:22.533Z,4.90
2018-07-15T11:56:54.601Z,4.62
2018-07-15T11:59:26.625Z,5.35
2018-07-15T12:01:59.743Z,5.17
2018-07-15T12:04:31.706Z,4.45
2018-07-15T12:07:04.271Z,4.37
2018-07-15T12:09:36.163Z,4.45
2018-07-15T12:12:08.110Z,4.33
2018-07-15T12:14:39.359Z,4.03
2018-07-15T12:17:11.220Z,3.35
2018-07-15T12:19:43.261Z,3.50
2018-07-15T12:22:15.377Z,3.15
2018-07-15T12:24:47.059Z,4.17
2018-07-15T12:27:19.220Z,2.45
2018-07-15T12:29:50.878Z,2.98
2018-07-15T12:32:22.262Z,2.77
2018-07-15T12:34:54.705Z,2.33
2018-07-15T12:37:27.331Z,2.80
2018-07-15T12:39:59.909Z,2.85
2018-07-15T12:42:31.832Z,2.55
2018-07-15T12:45:03.797Z,2.70
2018-07-15T12:47:36.359Z,2.30
2018-07-15T12:50:08.983Z,2.10
2018-07-15T12:52:40.782Z,2.08
2018-07-15T12:55:12.801Z,1.70
2018-07-15T12:57:44.203Z,1.67
2018-07-15T13:00:16.197Z,1.82
2018-07-15T13:02:47.879Z,1.82
2018-07-15T13:05:19.327Z,1.65
2018-07-15T13:07:51.271Z,1.60
2018-07-15T13:10:23.884Z,1.75
2018-07-15T13:12:55.485Z,1.62
2018-07-15T13:15:27.660Z,1.67
2018-07-15T13:17:59.766Z,1.75
2018-07-15T13:20:32.435Z,2.20
2018-07-15T13:23:05.683Z,2.30
2018-07-15T13:25:37.444Z,2.20
2018-07-15T13:28:09.465Z,2.75
2018-07-15T13:30:41.222Z,3.00
2018-07-15T13:33:12.869Z,2.62
2018-07-15T13:35:44.434Z,2.47
2018-07-15T13:38:16.985Z,2.58
2018-07-15T13:40:49.520Z,2.60
2018-07-15T13:43:21.369Z,2.83
2018-07-15T13:45:53.428Z,2.47
2018-07-15T13:48:25.446Z,2.40
2018-07-15T13:50:57.725Z,2.60
2018-07-15T13:53:30.476Z,2.52
2018-07-15T13:56:02.179Z,2.50
2018-07-15T13:58:33.979Z,2.25
2018-07-15T14:01:05.591Z,2.65
2018-07-15T14:03:37.707Z,2.95
2018-07-15T14:06:09.845Z,2.67
2018-07-15T14:08:41.455Z,2.98
2018-07-15T14:11:13.458Z,2.67
2018-07-15T14:13:44.783Z,3.10
2018-07-15T14:16:16.467Z,4.25
2018-07-15T14:18:48.004Z,4.50
2018-07-15T14:21:21.099Z,3.85
2018-07-15T14:23:53.070Z,3.60
2018-07-15T14:26:25.362Z,3.95
2018-07-15T14:28:56.968Z,4.25
2018-07-15T14:31:30.368Z,4.40
2018-07-15T14:34:02.026Z,3.85
2018-07-15T14:36:33.621Z,4.12
2018-07-15T14:39:05.826Z,4.60
2018-07-15T14:41:37.909Z,4.58
2018-07-15T14:44:09.599Z,4.70
2018-07-15T14:46:41.735Z,4.40
2018-07-15T14:49:12.981Z,4.33
2018-07-15T14:51:44.581Z,4.60
2018-07-15T14:54:16.711Z,4.42
2018-07-15T14:56:48.695Z,4.40
2018-07-15T14:59:20.448Z,3.75
2018-07-15T15:01:52.500Z,4.12
2018-07-15T15:04:24.580Z,4.10
2018-07-15T15:06:56.252Z,3.58
2018-07-15T15:09:28.139Z,4.15
2018-07-15T15:12:00.102Z,4.00
2018-07-15T15:14:32.652Z,4.58
2018-07-15T15:17:04.543Z,4.10
2018-07-15T15:19:36.494Z,4.15
2018-07-15T15:22:08.464Z,4.47
2018-07-15T15:24:40.373Z,4.00
2018-07-15T15:27:12.276Z,4.50
2018-07-15T15:29:44.196Z,3.90
2018-07-15T15:32:17.389Z,4.05
2018-07-15T15:34:49.367Z,4.15
2018-07-15T15:37:21.494Z,4.33
2018-07-15T15:39:53.742Z,4.42
2018-07-15T15:42:25.410Z,4.35
2018-07-15T15:44:57.111Z,3.77
2018-07-15T15:47:29.252Z,4.25
2018-07-15T15:50:00.982Z,4.30
2018-07-15T15:52:33.576Z,3.92
2018-07-15T15:55:05.795Z,4.80
2018-07-15T15:57:37.453Z,4.35
2018-07-15T16:00:10.538Z,4.83
2018-07-15T16:02:42.620Z,4.97
2018-07-15T16:05:15.212Z,4.15
2018-07-15T16:07:47.378Z,4.20
2018-07-15T16:10:19.102Z,4.05
2018-07-15T16:12:50.889Z,4.40
2018-07-15T16:15:22.581Z,4.50
2018-07-15T16:17:54.215Z,3.92
2018-07-15T16:20:26.058Z,4.37
2018-07-15T16:22:58.063Z,4.45
2018-07-15T16:25:29.357Z,4.27
2018-07-15T16:28:01.228Z,4.60
2018-07-15T16:30:33.217Z,4.45
2018-07-15T16:33:05.130Z,3.90
2018-07-15T16:35:37.077Z,3.90
2018-07-15T16:38:08.913Z,4.28
2018-07-15T16:40:40.955Z,3.65
2018-07-15T16:43:12.848Z,3.60
2018-07-15T16:45:44.798Z,3.72
2018-07-15T16:48:16.690Z,3.70
2018-07-15T16:50:48.647Z,3.80
2018-07-15T16:53:20.532Z,3.47
2018-07-15T16:55:52.514Z,3.70
2018-07-15T16:58:24.742Z,3.70
2018-07-15T17:00:57.723Z,4.03
2018-07-15T17:03:29.795Z,4.15
2018-07-15T17:06:02.161Z,3.95
2018-07-15T17:08:33.748Z,3.87
2018-07-15T17:11:06.306Z,4.20
2018-07-15T17:13:38.759Z,4.30
2018-07-15T17:16:10.517Z,4.08
2018-07-15T17:18:41.972Z,4.00
2018-07-15T17:21:13.926Z,3.90
2018-07-15T17:23:45.640Z,3.42
2018-07-15T17:26:17.461Z,3.80
2018-07-15T17:28:49.119Z,3.50
2018-07-15T17:31:20.747Z,3.90
2018-07-15T17:33:52.893Z,3.70
2018-07-15T17:36:24.579Z,4.20
2018-07-15T17:38:56.010Z,4.05
2018-07-15T17:41:28.073Z,3.87
2018-07-15T17:44:00.292Z,3.77
2018-07-15T17:46:31.846Z,3.58
2018-07-15T17:49:03.453Z,4.12
2018-07-15T17:51:35.563Z,4.60
2018-07-15T17:54:07.239Z,3.47
2018-07-15T17:56:39.825Z,3.62
2018-07-15T17:59:12.338Z,3.52
2018-07-15T18:01:44.924Z,3.42
2018-07-15T18:04:16.761Z,3.33
2018-07-15T18:06:49.473Z,3.20
2018-07-15T18:09:21.486Z,3.17
2018-07-15T18:11:54.111Z,2.92
2018-07-15T18:14:26.727Z,3.20
2018-07-15T18:16:58.630Z,3.60
2018-07-15T18:19:30.616Z,3.90
2018-07-15T18:22:04.069Z,3.50
2018-07-15T18:24:36.342Z,3.20
2018-07-15T18:27:08.308Z,3.77
2018-07-15T18:29:40.946Z,3.70
2018-07-15T18:32:13.644Z,3.47
2018-07-15T18:34:46.228Z,3.22
2018-07-15T18:37:18.464Z,3.00
2018-07-15T18:39:50.893Z,3.58
2018-07-15T18:42:24.294Z,3.83
2018-07-15T18:44:56.296Z,3.55
2018-07-15T18:47:28.993Z,3.17
2018-07-15T18:50:00.999Z,3.75
2018-07-15T18:52:36.253Z,3.70
2018-07-15T18:55:08.077Z,3.90
2018-07-15T18:57:40.065Z,3.90
2018-07-15T19:00:12.631Z,3.92
2018-07-15T19:02:44.512Z,3.70
2018-07-15T19:05:16.423Z,3.67
2018-07-15T19:07:48.346Z,3.87
2018-07-15T19:10:20.263Z,3.47
2018-07-15T19:12:52.101Z,3.60
2018-07-15T19:15:23.684Z,3.42
2018-07-15T19:17:55.888Z,3.97
2018-07-15T19:20:27.851Z,4.00
2018-07-15T19:23:00.946Z,3.77
2018-07-15T19:25:32.986Z,4.07
2018-07-15T19:28:04.831Z,3.53
2018-07-15T19:30:37.428Z,3.87
2018-07-15T19:33:09.371Z,3.90
2018-07-15T19:35:40.654Z,3.90
2018-07-15T19:38:13.243Z,4.00
2018-07-15T19:40:45.067Z,3.63
2018-07-15T19:43:17.047Z,4.17
2018-07-15T19:45:49.608Z,3.77
2018-07-15T19:48:20.891Z,3.77
2018-07-15T19:50:54.953Z,4.30
2018-07-15T19:53:26.956Z,4.00
2018-07-15T19:55:58.576Z,4.47
2018-07-15T19:58:29.867Z,4.30
2018-07-15T20:01:14.524Z,3.70
2018-07-15T20:03:47.404Z,4.10
2018-07-15T20:06:19.329Z,4.40
2018-07-15T20:08:50.557Z,4.50
2018-07-15T20:11:30.132Z,4.03
2018-07-15T20:14:01.804Z,3.97
2018-07-15T20:16:33.025Z,4.30
2018-07-15T20:19:04.691Z,4.27
2018-07-15T20:21:37.233Z,3.93
2018-07-15T20:24:08.487Z,4.60
2018-07-15T20:26:39.802Z,4.13
2018-07-15T20:29:11.081Z,4.53
2018-07-15T20:31:42.357Z,4.27
2018-07-15T20:34:13.611Z,4.30
2018-07-15T20:36:45.593Z,4.17
2018-07-15T20:39:17.491Z,4.63
2018-07-15T20:41:49.378Z,4.53
2018-07-15T20:44:21.350Z,4.13
2018-07-15T20:46:52.643Z,3.83
2018-07-15T20:49:23.886Z,4.30
2018-07-15T20:51:55.143Z,3.67
2018-07-15T20:54:27.063Z,4.00
2018-07-15T20:56:59.042Z,4.00
2018-07-15T20:59:30.330Z,4.00
2018-07-15T21:02:02.175Z,3.83
2018-07-15T21:04:34.132Z,3.80
2018-07-15T21:07:05.970Z,3.50
2018-07-15T21:09:37.263Z,3.80
2018-07-15T21:12:08.551Z,4.37
2018-07-15T21:14:40.560Z,4.13
2018-07-15T21:17:11.786Z,3.57
2018-07-15T21:19:42.667Z,3.10
2018-07-15T21:22:13.977Z,3.80
2018-07-15T21:24:45.658Z,3.13
2018-07-15T21:27:17.646Z,3.50
2018-07-15T21:29:49.453Z,3.80
2018-07-15T21:32:21.304Z,3.70
2018-07-15T21:34:52.582Z,3.37
2018-07-15T21:37:24.030Z,3.97
2018-07-15T21:39:55.978Z,3.40
2018-07-15T21:42:27.271Z,3.50
2018-07-15T21:45:00.040Z,3.77
2018-07-15T21:47:31.692Z,3.63
2018-07-15T21:50:04.235Z,3.67
2018-07-15T21:52:36.278Z,3.70
2018-07-15T21:55:07.992Z,3.60
2018-07-15T21:57:39.679Z,3.33
2018-07-15T22:00:11.274Z,3.27
2018-07-15T22:02:42.497Z,3.47
2018-07-15T22:05:13.724Z,3.80
2018-07-15T22:08:01.278Z,3.90
2018-07-15T22:10:38.790Z,3.43
2018-07-15T22:13:10.390Z,3.60
2018-07-15T22:15:42.328Z,3.40
2018-07-15T22:18:14.179Z,3.53
2018-07-15T22:20:46.111Z,3.50
2018-07-15T22:23:17.931Z,3.70
2018-07-15T22:25:49.878Z,3.30
2018-07-15T22:28:21.103Z,3.67
2018-07-15T22:30:52.334Z,3.83
2018-07-15T22:33:24.511Z,4.03
2018-07-15T22:35:55.704Z,3.80
2018-07-15T22:38:27.354Z,3.50
2018-07-15T22:40:58.576Z,3.30
2018-07-15T22:43:29.453Z,3.47
2018-07-15T22:46:01.921Z,3.77
2018-07-15T22:48:33.119Z,3.37
2018-07-15T22:51:04.803Z,3.67
2018-07-15T22:53:36.021Z,3.43
2018-07-15T22:56:07.256Z,3.50
2018-07-15T22:58:38.994Z,3.10
2018-07-15T23:01:11.005Z,3.37
2018-07-15T23:03:42.839Z,3.17
2018-07-15T23:06:20.649Z,3.20
2018-07-15T23:08:51.871Z,3.60
2018-07-15T23:11:23.826Z,3.20
2018-07-15T23:13:55.036Z,3.33
2018-07-15T23:16:26.265Z,3.23
2018-07-15T23:18:57.470Z,3.50
2018-07-15T23:21:28.717Z,3.40
2018-07-15T23:24:00.466Z,3.70
2018-07-15T23:26:31.721Z,3.63
2018-07-15T23:29:03.691Z,3.27
2018-07-15T23:31:37.114Z,3.40
2018-07-15T23:34:08.375Z,3.00
2018-07-15T23:36:39.663Z,3.40
2018-07-15T23:39:10.791Z,3.17
2018-07-15T23:41:42.466Z,3.03
2018-07-15T23:44:13.699Z,3.13
2018-07-15T23:46:44.916Z,2.80
2018-07-15T23:49:16.677Z,3.20
2018-07-15T23:51:47.971Z,3.13
2018-07-15T23:54:19.185Z,3.03
2018-07-15T23:56:50.444Z,3.13
2018-07-15T23:59:21.207Z,3.20
